sensor_id;sensor_type;location;lat;lon;timestamp;P1;durP1;ratioP1;P2;durP2;ratioP2
72198;SDS011;72266;51.056;16.880;2024-03-02T00:02:19;79.20;;;39.50;;
72198;SDS011;72266;51.056;16.880;2024-03-02T00:04:49;78.40;;;40.70;;
72198;SDS011;72266;51.056;16.880;2024-03-02T00:07:18;77.10;;;37.40;;
72198;SDS011;72266;51.056;16.880;2024-03-02T00:09:48;80.20;;;38.50;;
72198;SDS011;72266;51.056;16.880;2024-03-02T00:12:19;81.60;;;41.10;;
72198;SDS011;72266;51.056;16.880;2024-03-02T00:14:49;80.10;;;40.20;;
72198;SDS011;72266;51.056;16.880;2024-03-02T00:17:21;83.60;;;40.00;;
72198;SDS011;72266;51.056;16.880;2024-03-02T00:19:53;79.70;;;41.40;;
72198;SDS011;72266;51.056;16.880;2024-03-02T00:22:23;81.00;;;40.70;;
72198;SDS011;72266;51.056;16.880;2024-03-02T00:24:52;82.60;;;40.80;;
72198;SDS011;72266;51.056;16.880;2024-03-02T00:27:23;80.70;;;41.50;;
72198;SDS011;72266;51.056;16.880;2024-03-02T00:29:53;85.70;;;41.10;;
72198;SDS011;72266;51.056;16.880;2024-03-02T00:32:24;78.50;;;40.70;;
72198;SDS011;72266;51.056;16.880;2024-03-02T00:34:56;85.70;;;41.70;;
72198;SDS011;72266;51.056;16.880;2024-03-02T00:37:26;87.70;;;42.30;;
72198;SDS011;72266;51.056;16.880;2024-03-02T00:39:56;82.60;;;40.80;;
72198;SDS011;72266;51.056;16.880;2024-03-02T00:42:25;79.40;;;40.30;;
72198;SDS011;72266;51.056;16.880;2024-03-02T00:44:55;76.70;;;39.80;;
72198;SDS011;72266;51.056;16.880;2024-03-02T00:47:25;88.80;;;41.30;;
72198;SDS011;72266;51.056;16.880;2024-03-02T00:49:55;79.10;;;40.80;;
72198;SDS011;72266;51.056;16.880;2024-03-02T00:52:24;88.80;;;43.90;;
72198;SDS011;72266;51.056;16.880;2024-03-02T00:54:55;87.20;;;43.60;;
72198;SDS011;72266;51.056;16.880;2024-03-02T00:57:27;86.10;;;42.30;;
72198;SDS011;72266;51.056;16.880;2024-03-02T00:59:58;89.60;;;42.90;;
72198;SDS011;72266;51.056;16.880;2024-03-02T01:02:28;83.10;;;41.70;;
72198;SDS011;72266;51.056;16.880;2024-03-02T01:04:58;87.40;;;42.90;;
72198;SDS011;72266;51.056;16.880;2024-03-02T01:07:28;84.40;;;42.70;;
72198;SDS011;72266;51.056;16.880;2024-03-02T01:09:57;90.20;;;44.50;;
72198;SDS011;72266;51.056;16.880;2024-03-02T01:12:27;90.50;;;43.30;;
72198;SDS011;72266;51.056;16.880;2024-03-02T01:14:57;85.10;;;41.90;;
72198;SDS011;72266;51.056;16.880;2024-03-02T01:17:27;89.90;;;44.80;;
72198;SDS011;72266;51.056;16.880;2024-03-02T01:19:57;88.00;;;44.80;;
72198;SDS011;72266;51.056;16.880;2024-03-02T01:22:27;88.60;;;42.70;;
72198;SDS011;72266;51.056;16.880;2024-03-02T01:24:56;85.00;;;41.20;;
72198;SDS011;72266;51.056;16.880;2024-03-02T01:27:26;85.80;;;41.70;;
72198;SDS011;72266;51.056;16.880;2024-03-02T01:29:56;90.40;;;45.80;;
72198;SDS011;72266;51.056;16.880;2024-03-02T01:32:27;93.30;;;44.70;;
72198;SDS011;72266;51.056;16.880;2024-03-02T01:34:57;70.60;;;35.90;;
72198;SDS011;72266;51.056;16.880;2024-03-02T01:37:27;88.60;;;44.60;;
72198;SDS011;72266;51.056;16.880;2024-03-02T01:39:56;88.70;;;41.90;;
72198;SDS011;72266;51.056;16.880;2024-03-02T01:42:26;90.20;;;42.30;;
72198;SDS011;72266;51.056;16.880;2024-03-02T01:44:55;84.70;;;43.50;;
72198;SDS011;72266;51.056;16.880;2024-03-02T01:47:25;85.40;;;42.60;;
72198;SDS011;72266;51.056;16.880;2024-03-02T01:49:55;84.10;;;42.40;;
72198;SDS011;72266;51.056;16.880;2024-03-02T01:52:25;83.10;;;41.60;;
72198;SDS011;72266;51.056;16.880;2024-03-02T01:54:54;85.90;;;41.40;;
72198;SDS011;72266;51.056;16.880;2024-03-02T01:57:25;86.80;;;44.60;;
72198;SDS011;72266;51.056;16.880;2024-03-02T01:59:55;83.50;;;42.20;;
72198;SDS011;72266;51.056;16.880;2024-03-02T02:02:25;82.60;;;41.50;;
72198;SDS011;72266;51.056;16.880;2024-03-02T02:04:54;82.90;;;40.80;;
72198;SDS011;72266;51.056;16.880;2024-03-02T02:07:24;81.60;;;39.60;;
72198;SDS011;72266;51.056;16.880;2024-03-02T02:09:53;76.90;;;38.10;;
72198;SDS011;72266;51.056;16.880;2024-03-02T02:12:24;84.70;;;42.10;;
72198;SDS011;72266;51.056;16.880;2024-03-02T02:14:54;91.40;;;42.60;;
72198;SDS011;72266;51.056;16.880;2024-03-02T02:17:24;84.40;;;40.90;;
72198;SDS011;72266;51.056;16.880;2024-03-02T02:19:54;84.30;;;43.30;;
72198;SDS011;72266;51.056;16.880;2024-03-02T02:22:23;82.80;;;42.10;;
72198;SDS011;72266;51.056;16.880;2024-03-02T02:24:53;84.40;;;41.70;;
72198;SDS011;72266;51.056;16.880;2024-03-02T02:27:24;87.20;;;43.60;;
72198;SDS011;72266;51.056;16.880;2024-03-02T02:29:54;89.40;;;43.00;;
72198;SDS011;72266;51.056;16.880;2024-03-02T02:32:23;86.50;;;43.20;;
72198;SDS011;72266;51.056;16.880;2024-03-02T02:34:56;80.30;;;38.40;;
72198;SDS011;72266;51.056;16.880;2024-03-02T02:37:26;84.30;;;40.80;;
72198;SDS011;72266;51.056;16.880;2024-03-02T02:39:55;82.60;;;40.20;;
72198;SDS011;72266;51.056;16.880;2024-03-02T02:42:25;80.90;;;41.40;;
72198;SDS011;72266;51.056;16.880;2024-03-02T02:44:55;83.80;;;41.30;;
72198;SDS011;72266;51.056;16.880;2024-03-02T02:47:24;83.00;;;41.60;;
72198;SDS011;72266;51.056;16.880;2024-03-02T02:49:56;85.60;;;41.90;;
72198;SDS011;72266;51.056;16.880;2024-03-02T02:52:26;83.10;;;40.90;;
72198;SDS011;72266;51.056;16.880;2024-03-02T02:55:02;83.00;;;40.70;;
72198;SDS011;72266;51.056;16.880;2024-03-02T02:57:33;84.10;;;41.90;;
72198;SDS011;72266;51.056;16.880;2024-03-02T03:00:06;83.10;;;39.30;;
72198;SDS011;72266;51.056;16.880;2024-03-02T03:02:38;83.80;;;41.10;;
72198;SDS011;72266;51.056;16.880;2024-03-02T03:05:10;83.90;;;40.50;;
72198;SDS011;72266;51.056;16.880;2024-03-02T03:07:43;80.20;;;39.50;;
72198;SDS011;72266;51.056;16.880;2024-03-02T03:10:18;80.60;;;39.80;;
72198;SDS011;72266;51.056;16.880;2024-03-02T03:12:50;85.50;;;37.80;;
72198;SDS011;72266;51.056;16.880;2024-03-02T03:15:20;80.40;;;38.90;;
72198;SDS011;72266;51.056;16.880;2024-03-02T03:17:50;74.10;;;37.20;;
72198;SDS011;72266;51.056;16.880;2024-03-02T03:20:20;77.60;;;39.10;;
72198;SDS011;72266;51.056;16.880;2024-03-02T03:22:51;82.40;;;38.20;;
72198;SDS011;72266;51.056;16.880;2024-03-02T03:25:20;81.20;;;38.00;;
72198;SDS011;72266;51.056;16.880;2024-03-02T03:27:50;82.80;;;39.70;;
72198;SDS011;72266;51.056;16.880;2024-03-02T03:30:20;80.20;;;39.60;;
72198;SDS011;72266;51.056;16.880;2024-03-02T03:32:50;84.10;;;40.00;;
72198;SDS011;72266;51.056;16.880;2024-03-02T03:35:20;81.10;;;40.20;;
72198;SDS011;72266;51.056;16.880;2024-03-02T03:37:51;81.30;;;39.70;;
72198;SDS011;72266;51.056;16.880;2024-03-02T03:40:20;75.60;;;36.00;;
72198;SDS011;72266;51.056;16.880;2024-03-02T03:42:50;78.70;;;37.90;;
72198;SDS011;72266;51.056;16.880;2024-03-02T03:45:20;80.30;;;39.00;;
72198;SDS011;72266;51.056;16.880;2024-03-02T03:47:50;69.30;;;35.20;;
72198;SDS011;72266;51.056;16.880;2024-03-02T03:50:22;79.80;;;39.90;;
72198;SDS011;72266;51.056;16.880;2024-03-02T03:52:52;80.40;;;38.10;;
72198;SDS011;72266;51.056;16.880;2024-03-02T03:55:24;75.30;;;37.30;;
72198;SDS011;72266;51.056;16.880;2024-03-02T03:57:54;70.50;;;34.10;;
72198;SDS011;72266;51.056;16.880;2024-03-02T04:00:24;76.10;;;38.90;;
72198;SDS011;72266;51.056;16.880;2024-03-02T04:02:54;71.50;;;37.30;;
72198;SDS011;72266;51.056;16.880;2024-03-02T04:05:26;75.80;;;38.50;;
72198;SDS011;72266;51.056;16.880;2024-03-02T04:07:56;72.50;;;37.10;;
72198;SDS011;72266;51.056;16.880;2024-03-02T04:10:25;79.50;;;39.30;;
72198;SDS011;72266;51.056;16.880;2024-03-02T04:12:54;70.80;;;36.30;;
72198;SDS011;72266;51.056;16.880;2024-03-02T04:15:24;79.90;;;39.70;;
72198;SDS011;72266;51.056;16.880;2024-03-02T04:17:54;79.30;;;38.70;;
72198;SDS011;72266;51.056;16.880;2024-03-02T04:20:24;79.40;;;38.20;;
72198;SDS011;72266;51.056;16.880;2024-03-02T04:22:53;68.60;;;34.50;;
72198;SDS011;72266;51.056;16.880;2024-03-02T04:25:23;72.80;;;35.00;;
72198;SDS011;72266;51.056;16.880;2024-03-02T04:27:53;77.30;;;37.50;;
72198;SDS011;72266;51.056;16.880;2024-03-02T04:30:22;76.90;;;38.40;;
72198;SDS011;72266;51.056;16.880;2024-03-02T04:32:53;72.80;;;37.70;;
72198;SDS011;72266;51.056;16.880;2024-03-02T04:35:22;77.60;;;37.90;;
72198;SDS011;72266;51.056;16.880;2024-03-02T04:37:53;75.20;;;36.60;;
72198;SDS011;72266;51.056;16.880;2024-03-02T04:40:22;72.50;;;36.30;;
72198;SDS011;72266;51.056;16.880;2024-03-02T04:42:52;82.60;;;39.80;;
72198;SDS011;72266;51.056;16.880;2024-03-02T04:45:23;73.90;;;35.80;;
72198;SDS011;72266;51.056;16.880;2024-03-02T04:47:54;76.60;;;36.70;;
72198;SDS011;72266;51.056;16.880;2024-03-02T04:50:23;78.80;;;38.20;;
72198;SDS011;72266;51.056;16.880;2024-03-02T04:52:53;72.10;;;37.70;;
72198;SDS011;72266;51.056;16.880;2024-03-02T04:55:22;60.60;;;30.80;;
72198;SDS011;72266;51.056;16.880;2024-03-02T04:58:20;72.90;;;36.80;;
72198;SDS011;72266;51.056;16.880;2024-03-02T05:00:50;68.50;;;35.30;;
72198;SDS011;72266;51.056;16.880;2024-03-02T05:03:20;73.60;;;37.00;;
72198;SDS011;72266;51.056;16.880;2024-03-02T05:05:50;78.10;;;37.60;;
72198;SDS011;72266;51.056;16.880;2024-03-02T05:08:20;70.00;;;35.60;;
72198;SDS011;72266;51.056;16.880;2024-03-02T05:10:49;74.50;;;36.20;;
72198;SDS011;72266;51.056;16.880;2024-03-02T05:13:19;71.10;;;35.90;;
72198;SDS011;72266;51.056;16.880;2024-03-02T05:15:49;77.40;;;36.90;;
72198;SDS011;72266;51.056;16.880;2024-03-02T05:18:19;69.50;;;36.20;;
72198;SDS011;72266;51.056;16.880;2024-03-02T05:20:50;73.70;;;36.80;;
72198;SDS011;72266;51.056;16.880;2024-03-02T05:23:20;74.70;;;35.20;;
72198;SDS011;72266;51.056;16.880;2024-03-02T05:25:50;68.70;;;34.40;;
72198;SDS011;72266;51.056;16.880;2024-03-02T05:28:21;69.50;;;35.90;;
72198;SDS011;72266;51.056;16.880;2024-03-02T05:30:50;70.90;;;36.70;;
72198;SDS011;72266;51.056;16.880;2024-03-02T05:33:21;76.00;;;37.90;;
72198;SDS011;72266;51.056;16.880;2024-03-02T05:35:54;72.30;;;36.30;;
72198;SDS011;72266;51.056;16.880;2024-03-02T05:38:23;75.10;;;36.90;;
72198;SDS011;72266;51.056;16.880;2024-03-02T05:40:53;69.50;;;37.40;;
72198;SDS011;72266;51.056;16.880;2024-03-02T05:43:26;74.60;;;37.60;;
72198;SDS011;72266;51.056;16.880;2024-03-02T05:45:56;72.30;;;36.00;;
72198;SDS011;72266;51.056;16.880;2024-03-02T05:48:26;74.70;;;36.30;;
72198;SDS011;72266;51.056;16.880;2024-03-02T05:50:56;76.10;;;36.20;;
72198;SDS011;72266;51.056;16.880;2024-03-02T05:53:26;77.60;;;37.80;;
72198;SDS011;72266;51.056;16.880;2024-03-02T05:55:56;74.60;;;38.20;;
72198;SDS011;72266;51.056;16.880;2024-03-02T05:58:28;71.60;;;37.80;;
72198;SDS011;72266;51.056;16.880;2024-03-02T06:01:13;73.00;;;37.20;;
72198;SDS011;72266;51.056;16.880;2024-03-02T06:03:46;80.10;;;37.10;;
72198;SDS011;72266;51.056;16.880;2024-03-02T06:06:17;70.00;;;35.30;;
72198;SDS011;72266;51.056;16.880;2024-03-02T06:08:46;72.50;;;35.40;;
72198;SDS011;72266;51.056;16.880;2024-03-02T06:11:16;64.70;;;33.10;;
72198;SDS011;72266;51.056;16.880;2024-03-02T06:13:47;66.90;;;34.60;;
72198;SDS011;72266;51.056;16.880;2024-03-02T06:16:19;70.90;;;34.00;;
72198;SDS011;72266;51.056;16.880;2024-03-02T06:18:51;64.40;;;32.90;;
72198;SDS011;72266;51.056;16.880;2024-03-02T06:21:22;69.10;;;33.20;;
72198;SDS011;72266;51.056;16.880;2024-03-02T06:23:53;66.90;;;32.80;;
72198;SDS011;72266;51.056;16.880;2024-03-02T06:26:22;68.60;;;34.40;;
72198;SDS011;72266;51.056;16.880;2024-03-02T06:28:55;67.90;;;32.70;;
72198;SDS011;72266;51.056;16.880;2024-03-02T06:31:26;65.20;;;32.70;;
72198;SDS011;72266;51.056;16.880;2024-03-02T06:33:55;68.50;;;33.70;;
72198;SDS011;72266;51.056;16.880;2024-03-02T06:36:25;65.20;;;32.90;;
72198;SDS011;72266;51.056;16.880;2024-03-02T06:38:54;71.00;;;34.90;;
72198;SDS011;72266;51.056;16.880;2024-03-02T06:41:24;65.70;;;33.90;;
72198;SDS011;72266;51.056;16.880;2024-03-02T06:43:54;68.40;;;34.70;;
72198;SDS011;72266;51.056;16.880;2024-03-02T06:46:27;65.20;;;33.90;;
72198;SDS011;72266;51.056;16.880;2024-03-02T06:48:57;64.60;;;29.30;;
72198;SDS011;72266;51.056;16.880;2024-03-02T06:51:28;72.70;;;35.00;;
72198;SDS011;72266;51.056;16.880;2024-03-02T06:53:58;68.10;;;35.00;;
72198;SDS011;72266;51.056;16.880;2024-03-02T06:56:29;68.20;;;34.10;;
72198;SDS011;72266;51.056;16.880;2024-03-02T06:59:00;67.70;;;33.50;;
72198;SDS011;72266;51.056;16.880;2024-03-02T07:01:33;70.60;;;32.80;;
72198;SDS011;72266;51.056;16.880;2024-03-02T07:04:04;70.80;;;35.50;;
72198;SDS011;72266;51.056;16.880;2024-03-02T07:06:34;69.80;;;37.00;;
72198;SDS011;72266;51.056;16.880;2024-03-02T07:09:05;65.00;;;32.00;;
72198;SDS011;72266;51.056;16.880;2024-03-02T07:11:38;70.30;;;35.20;;
72198;SDS011;72266;51.056;16.880;2024-03-02T07:14:08;67.90;;;34.10;;
72198;SDS011;72266;51.056;16.880;2024-03-02T07:16:39;70.80;;;36.70;;
72198;SDS011;72266;51.056;16.880;2024-03-02T07:19:12;71.90;;;36.90;;
72198;SDS011;72266;51.056;16.880;2024-03-02T07:21:42;68.20;;;34.70;;
72198;SDS011;72266;51.056;16.880;2024-03-02T07:24:16;68.70;;;35.60;;
72198;SDS011;72266;51.056;16.880;2024-03-02T07:26:46;71.70;;;36.70;;
72198;SDS011;72266;51.056;16.880;2024-03-02T07:29:18;69.70;;;35.30;;
72198;SDS011;72266;51.056;16.880;2024-03-02T07:31:48;68.70;;;35.20;;
72198;SDS011;72266;51.056;16.880;2024-03-02T07:34:19;71.70;;;36.10;;
72198;SDS011;72266;51.056;16.880;2024-03-02T07:36:48;70.90;;;37.10;;
72198;SDS011;72266;51.056;16.880;2024-03-02T07:39:19;71.40;;;37.00;;
72198;SDS011;72266;51.056;16.880;2024-03-02T07:41:48;73.40;;;36.60;;
72198;SDS011;72266;51.056;16.880;2024-03-02T07:44:18;72.30;;;35.80;;
72198;SDS011;72266;51.056;16.880;2024-03-02T07:46:48;65.80;;;36.60;;
72198;SDS011;72266;51.056;16.880;2024-03-02T07:49:18;67.90;;;34.40;;
72198;SDS011;72266;51.056;16.880;2024-03-02T07:51:48;72.30;;;34.90;;
72198;SDS011;72266;51.056;16.880;2024-03-02T07:54:18;65.00;;;34.80;;
72198;SDS011;72266;51.056;16.880;2024-03-02T07:56:47;71.30;;;35.90;;
72198;SDS011;72266;51.056;16.880;2024-03-02T07:59:18;64.20;;;34.00;;
72198;SDS011;72266;51.056;16.880;2024-03-02T08:01:50;59.80;;;33.80;;
72198;SDS011;72266;51.056;16.880;2024-03-02T08:04:20;63.70;;;34.80;;
72198;SDS011;72266;51.056;16.880;2024-03-02T08:06:51;61.80;;;34.30;;
72198;SDS011;72266;51.056;16.880;2024-03-02T08:09:25;60.10;;;32.30;;
72198;SDS011;72266;51.056;16.880;2024-03-02T08:11:55;63.70;;;33.60;;
72198;SDS011;72266;51.056;16.880;2024-03-02T08:14:25;61.70;;;32.80;;
72198;SDS011;72266;51.056;16.880;2024-03-02T08:16:58;59.60;;;33.30;;
72198;SDS011;72266;51.056;16.880;2024-03-02T08:19:29;57.00;;;31.60;;
72198;SDS011;72266;51.056;16.880;2024-03-02T08:21:59;61.70;;;34.50;;
72198;SDS011;72266;51.056;16.880;2024-03-02T08:24:30;62.10;;;33.60;;
72198;SDS011;72266;51.056;16.880;2024-03-02T08:27:00;59.70;;;33.70;;
72198;SDS011;72266;51.056;16.880;2024-03-02T08:29:30;61.00;;;34.20;;
72198;SDS011;72266;51.056;16.880;2024-03-02T08:35:51;60.10;;;32.50;;
72198;SDS011;72266;51.056;16.880;2024-03-02T08:38:22;60.20;;;31.60;;
72198;SDS011;72266;51.056;16.880;2024-03-02T08:40:53;62.60;;;33.80;;
72198;SDS011;72266;51.056;16.880;2024-03-02T08:43:23;59.60;;;33.00;;
72198;SDS011;72266;51.056;16.880;2024-03-02T08:45:54;58.00;;;32.10;;
72198;SDS011;72266;51.056;16.880;2024-03-02T08:48:27;57.30;;;30.90;;
72198;SDS011;72266;51.056;16.880;2024-03-02T08:50:57;60.60;;;33.80;;
72198;SDS011;72266;51.056;16.880;2024-03-02T08:53:32;56.70;;;33.50;;
72198;SDS011;72266;51.056;16.880;2024-03-02T08:56:04;56.80;;;32.90;;
72198;SDS011;72266;51.056;16.880;2024-03-02T08:58:35;54.40;;;32.20;;
72198;SDS011;72266;51.056;16.880;2024-03-02T09:01:05;59.90;;;32.70;;
72198;SDS011;72266;51.056;16.880;2024-03-02T09:03:36;60.20;;;33.40;;
72198;SDS011;72266;51.056;16.880;2024-03-02T09:06:07;59.00;;;33.80;;
72198;SDS011;72266;51.056;16.880;2024-03-02T09:08:36;58.00;;;33.30;;
72198;SDS011;72266;51.056;16.880;2024-03-02T09:11:07;56.60;;;31.90;;
72198;SDS011;72266;51.056;16.880;2024-03-02T09:13:38;56.30;;;31.80;;
72198;SDS011;72266;51.056;16.880;2024-03-02T09:16:09;45.10;;;25.20;;
72198;SDS011;72266;51.056;16.880;2024-03-02T09:18:42;53.80;;;28.80;;
72198;SDS011;72266;51.056;16.880;2024-03-02T09:21:15;53.60;;;26.60;;
72198;SDS011;72266;51.056;16.880;2024-03-02T09:23:50;51.80;;;28.00;;
72198;SDS011;72266;51.056;16.880;2024-03-02T09:26:21;52.30;;;28.50;;
72198;SDS011;72266;51.056;16.880;2024-03-02T09:28:54;51.90;;;28.40;;
72198;SDS011;72266;51.056;16.880;2024-03-02T09:31:24;53.30;;;27.90;;
72198;SDS011;72266;51.056;16.880;2024-03-02T09:33:54;45.40;;;27.30;;
72198;SDS011;72266;51.056;16.880;2024-03-02T09:36:27;44.30;;;25.30;;
72198;SDS011;72266;51.056;16.880;2024-03-02T09:38:57;51.60;;;27.40;;
72198;SDS011;72266;51.056;16.880;2024-03-02T09:41:28;50.50;;;27.70;;
72198;SDS011;72266;51.056;16.880;2024-03-02T09:43:57;50.50;;;26.90;;
72198;SDS011;72266;51.056;16.880;2024-03-02T09:46:28;48.80;;;26.60;;
72198;SDS011;72266;51.056;16.880;2024-03-02T09:48:59;47.20;;;27.00;;
72198;SDS011;72266;51.056;16.880;2024-03-02T09:51:29;52.00;;;26.30;;
72198;SDS011;72266;51.056;16.880;2024-03-02T09:54:01;49.10;;;26.90;;
72198;SDS011;72266;51.056;16.880;2024-03-02T09:56:46;50.30;;;25.40;;
72198;SDS011;72266;51.056;16.880;2024-03-02T09:59:16;48.40;;;26.40;;
72198;SDS011;72266;51.056;16.880;2024-03-02T10:01:57;45.70;;;24.00;;
72198;SDS011;72266;51.056;16.880;2024-03-02T10:04:29;45.60;;;24.40;;
72198;SDS011;72266;51.056;16.880;2024-03-02T10:07:11;44.10;;;24.50;;
72198;SDS011;72266;51.056;16.880;2024-03-02T10:09:46;44.60;;;23.00;;
72198;SDS011;72266;51.056;16.880;2024-03-02T10:12:18;44.90;;;24.70;;
72198;SDS011;72266;51.056;16.880;2024-03-02T10:14:50;40.50;;;21.60;;
72198;SDS011;72266;51.056;16.880;2024-03-02T10:17:35;42.60;;;22.80;;
72198;SDS011;72266;51.056;16.880;2024-03-02T10:20:22;46.10;;;24.10;;
72198;SDS011;72266;51.056;16.880;2024-03-02T10:22:55;46.00;;;22.80;;
72198;SDS011;72266;51.056;16.880;2024-03-02T10:25:31;44.80;;;23.00;;
72198;SDS011;72266;51.056;16.880;2024-03-02T10:28:05;41.30;;;20.90;;
72198;SDS011;72266;51.056;16.880;2024-03-02T10:30:35;47.40;;;21.20;;
72198;SDS011;72266;51.056;16.880;2024-03-02T10:33:06;41.00;;;23.10;;
72198;SDS011;72266;51.056;16.880;2024-03-02T10:35:37;46.40;;;22.10;;
72198;SDS011;72266;51.056;16.880;2024-03-02T10:38:12;39.00;;;22.20;;
72198;SDS011;72266;51.056;16.880;2024-03-02T10:40:47;39.10;;;21.20;;
72198;SDS011;72266;51.056;16.880;2024-03-02T10:43:20;40.40;;;23.60;;
72198;SDS011;72266;51.056;16.880;2024-03-02T10:45:53;40.20;;;20.90;;
72198;SDS011;72266;51.056;16.880;2024-03-02T10:48:27;39.60;;;22.10;;
72198;SDS011;72266;51.056;16.880;2024-03-02T10:51:00;33.90;;;19.30;;
72198;SDS011;72266;51.056;16.880;2024-03-02T10:53:39;32.80;;;19.60;;
72198;SDS011;72266;51.056;16.880;2024-03-02T10:56:28;39.60;;;21.30;;
72198;SDS011;72266;51.056;16.880;2024-03-02T10:59:17;38.60;;;21.40;;
72198;SDS011;72266;51.056;16.880;2024-03-02T11:01:55;35.40;;;19.70;;
72198;SDS011;72266;51.056;16.880;2024-03-02T11:04:34;40.80;;;22.30;;
72198;SDS011;72266;51.056;16.880;2024-03-02T11:07:08;40.30;;;21.20;;
72198;SDS011;72266;51.056;16.880;2024-03-02T11:09:40;30.50;;;16.30;;
72198;SDS011;72266;51.056;16.880;2024-03-02T11:12:25;33.20;;;18.20;;
72198;SDS011;72266;51.056;16.880;2024-03-02T11:15:12;35.10;;;20.30;;
72198;SDS011;72266;51.056;16.880;2024-03-02T11:17:50;31.20;;;16.20;;
72198;SDS011;72266;51.056;16.880;2024-03-02T11:20:24;31.20;;;16.60;;
72198;SDS011;72266;51.056;16.880;2024-03-02T11:22:55;33.30;;;17.50;;
72198;SDS011;72266;51.056;16.880;2024-03-02T11:25:33;40.00;;;20.50;;
72198;SDS011;72266;51.056;16.880;2024-03-02T11:28:09;31.90;;;16.70;;
72198;SDS011;72266;51.056;16.880;2024-03-02T11:30:50;32.10;;;18.80;;
72198;SDS011;72266;51.056;16.880;2024-03-02T11:33:26;30.40;;;17.30;;
72198;SDS011;72266;51.056;16.880;2024-03-02T11:35:58;32.80;;;16.70;;
72198;SDS011;72266;51.056;16.880;2024-03-02T11:38:28;33.20;;;17.70;;
72198;SDS011;72266;51.056;16.880;2024-03-02T11:41:01;34.90;;;18.70;;
72198;SDS011;72266;51.056;16.880;2024-03-02T11:43:50;32.50;;;17.50;;
72198;SDS011;72266;51.056;16.880;2024-03-02T11:46:25;31.50;;;17.50;;
72198;SDS011;72266;51.056;16.880;2024-03-02T11:48:57;36.50;;;17.50;;
72198;SDS011;72266;51.056;16.880;2024-03-02T11:51:30;31.50;;;17.50;;
72198;SDS011;72266;51.056;16.880;2024-03-02T11:54:11;26.90;;;14.90;;
72198;SDS011;72266;51.056;16.880;2024-03-02T11:56:46;34.10;;;17.90;;
72198;SDS011;72266;51.056;16.880;2024-03-02T11:59:17;36.70;;;18.80;;
72198;SDS011;72266;51.056;16.880;2024-03-02T12:01:53;36.00;;;18.60;;
72198;SDS011;72266;51.056;16.880;2024-03-02T12:04:24;33.70;;;19.20;;
72198;SDS011;72266;51.056;16.880;2024-03-02T12:06:55;33.70;;;18.50;;
72198;SDS011;72266;51.056;16.880;2024-03-02T12:09:31;30.50;;;18.00;;
72198;SDS011;72266;51.056;16.880;2024-03-02T12:12:05;34.10;;;19.40;;
72198;SDS011;72266;51.056;16.880;2024-03-02T12:14:38;35.60;;;19.10;;
72198;SDS011;72266;51.056;16.880;2024-03-02T12:17:16;31.50;;;17.80;;
72198;SDS011;72266;51.056;16.880;2024-03-02T12:19:47;28.00;;;15.80;;
72198;SDS011;72266;51.056;16.880;2024-03-02T12:22:22;28.00;;;15.90;;
72198;SDS011;72266;51.056;16.880;2024-03-02T12:24:53;30.00;;;16.00;;
72198;SDS011;72266;51.056;16.880;2024-03-02T12:27:23;29.30;;;15.40;;
72198;SDS011;72266;51.056;16.880;2024-03-02T12:29:58;27.30;;;14.00;;
72198;SDS011;72266;51.056;16.880;2024-03-02T12:32:29;25.40;;;13.60;;
72198;SDS011;72266;51.056;16.880;2024-03-02T12:35:00;27.70;;;12.90;;
72198;SDS011;72266;51.056;16.880;2024-03-02T12:37:30;26.50;;;12.60;;
72198;SDS011;72266;51.056;16.880;2024-03-02T12:40:06;27.70;;;14.70;;
72198;SDS011;72266;51.056;16.880;2024-03-02T12:42:41;27.10;;;14.10;;
72198;SDS011;72266;51.056;16.880;2024-03-02T12:45:15;26.60;;;14.00;;
72198;SDS011;72266;51.056;16.880;2024-03-02T12:47:53;23.80;;;13.10;;
72198;SDS011;72266;51.056;16.880;2024-03-02T12:50:24;25.80;;;13.70;;
72198;SDS011;72266;51.056;16.880;2024-03-02T12:52:56;24.70;;;12.90;;
72198;SDS011;72266;51.056;16.880;2024-03-02T12:55:28;26.70;;;14.00;;
72198;SDS011;72266;51.056;16.880;2024-03-02T12:58:00;23.00;;;12.90;;
72198;SDS011;72266;51.056;16.880;2024-03-02T13:00:34;24.30;;;13.00;;
72198;SDS011;72266;51.056;16.880;2024-03-02T13:03:06;26.00;;;13.70;;
72198;SDS011;72266;51.056;16.880;2024-03-02T13:05:42;28.00;;;13.90;;
72198;SDS011;72266;51.056;16.880;2024-03-02T13:08:17;31.40;;;14.80;;
72198;SDS011;72266;51.056;16.880;2024-03-02T13:10:49;27.20;;;15.10;;
72198;SDS011;72266;51.056;16.880;2024-03-02T13:13:19;31.80;;;15.00;;
72198;SDS011;72266;51.056;16.880;2024-03-02T13:15:55;27.40;;;14.20;;
72198;SDS011;72266;51.056;16.880;2024-03-02T13:18:33;27.50;;;14.30;;
72198;SDS011;72266;51.056;16.880;2024-03-02T13:21:04;28.10;;;15.00;;
72198;SDS011;72266;51.056;16.880;2024-03-02T13:23:34;26.50;;;14.80;;
72198;SDS011;72266;51.056;16.880;2024-03-02T13:26:08;30.70;;;14.20;;
72198;SDS011;72266;51.056;16.880;2024-03-02T13:28:42;27.40;;;14.70;;
72198;SDS011;72266;51.056;16.880;2024-03-02T13:31:16;26.30;;;14.80;;
72198;SDS011;72266;51.056;16.880;2024-03-02T13:33:59;28.50;;;15.10;;
72198;SDS011;72266;51.056;16.880;2024-03-02T13:36:37;29.90;;;15.40;;
72198;SDS011;72266;51.056;16.880;2024-03-02T13:39:08;31.60;;;16.70;;
72198;SDS011;72266;51.056;16.880;2024-03-02T13:41:43;28.50;;;15.30;;
72198;SDS011;72266;51.056;16.880;2024-03-02T13:44:23;29.70;;;16.30;;
72198;SDS011;72266;51.056;16.880;2024-03-02T13:47:01;28.50;;;15.90;;
72198;SDS011;72266;51.056;16.880;2024-03-02T13:49:34;31.30;;;14.80;;
72198;SDS011;72266;51.056;16.880;2024-03-02T13:52:13;26.10;;;13.80;;
72198;SDS011;72266;51.056;16.880;2024-03-02T13:54:47;26.70;;;14.20;;
72198;SDS011;72266;51.056;16.880;2024-03-02T13:57:21;26.00;;;14.10;;
72198;SDS011;72266;51.056;16.880;2024-03-02T13:59:57;28.50;;;13.70;;
72198;SDS011;72266;51.056;16.880;2024-03-02T14:02:47;30.90;;;15.00;;
72198;SDS011;72266;51.056;16.880;2024-03-02T14:05:26;25.80;;;14.30;;
72198;SDS011;72266;51.056;16.880;2024-03-02T14:07:57;29.20;;;14.70;;
72198;SDS011;72266;51.056;16.880;2024-03-02T14:10:33;30.30;;;15.20;;
72198;SDS011;72266;51.056;16.880;2024-03-02T14:13:09;28.60;;;14.90;;
72198;SDS011;72266;51.056;16.880;2024-03-02T14:21:35;30.90;;;15.20;;
72198;SDS011;72266;51.056;16.880;2024-03-02T14:24:09;29.50;;;15.60;;
72198;SDS011;72266;51.056;16.880;2024-03-02T14:26:42;28.90;;;15.20;;
72198;SDS011;72266;51.056;16.880;2024-03-02T14:29:18;33.40;;;16.50;;
72198;SDS011;72266;51.056;16.880;2024-03-02T14:31:48;33.60;;;16.50;;
72198;SDS011;72266;51.056;16.880;2024-03-02T14:34:18;30.20;;;16.70;;
72198;SDS011;72266;51.056;16.880;2024-03-02T14:36:49;29.80;;;16.40;;
72198;SDS011;72266;51.056;16.880;2024-03-02T14:39:21;28.70;;;16.00;;
72198;SDS011;72266;51.056;16.880;2024-03-02T14:42:23;33.10;;;17.60;;
72198;SDS011;72266;51.056;16.880;2024-03-02T14:45:01;35.90;;;17.20;;
72198;SDS011;72266;51.056;16.880;2024-03-02T14:47:35;33.50;;;18.00;;